Terminal Aerodrome Forecast
Issued by NWS Paducah, KY

Home | Current Version | Previous Version | Text Only | Print | Product List | Glossary On
Versions: 1 2 3 4 5 6 7 8 9 10 11 12 13 14
000
FTUS43 KPAH 172300 RRA
TAFPAH
TAF
KPAH 172340Z 1800/1824 VRB03KT P6SM BKN040
     FM180800 VRB02KT 5SM BR BKN025
      TEMPO 1808/1812 2SM BR
     FM181400 07004KT P6SM BKN035
     FM181800 06006KT P6SM BKN045=

USA.gov is the U.S. government's official web portal to all federal, state and local government web resources and services.